Aeroporto :
LOGIN :

Iscrizione | Disclaimer

   EN    FR    IT 

 










Sommario :    VFR   VFR Marginale   IFR   IFR Intensivo   IFR Molto Intensivo
Visibilità : 
Base nubi : 
>= 8 km
>= 3000ft
5 / 8 km
1000 / 3000 ft
1500m / 5 km
500 / 1000 ft
800 / 1500m
200 / 500 ft
< 800m
< 200 ft
Simboli :   Temporali  Nebbia  Neve Forte  Precipitazioni Forti  Vento > 20 kt
SIGMETs :   Varie  Temporali  Ghiacco  Turbolenza  Onda orograficha  Ceneri Vulcaniche






- Altitudine del aeroporto : 461 ft
- Codice IATA : WIE


ETOU - Wiesbaden Army

ULTIMO METAR :
  • 211556Z AUTO 00000KT 9999 SCT080 SCT095 04/03 A2980 RMK AO2 SLP100 T00410028 $

METARs OBSOLETI :
  • 211456Z AUTO 00000KT 9999 CLR 05/03 A2980 RMK AO2 RAB42E54 SLP100 P0000 60000 T00450027 57005 $
  • 211356Z AUTO 16003KT 9999 CLR 05/02 A2980 RMK AO2 SLPNO T00510023 $

TAF TAF ETOU
Valido dal 21 a 12 ore il 22 a 18 ore UTC


211204Z 2112/2218 09006KT 9999 SCT015 BKN060 QNH2980INS
BECMG 2115/2116 13006KT 8000 BR BKN015 QNH2980INS
BECMG 2121/2122 VRB06KT 5000 BR BKN010 QNH2978INS
BECMG 2202/2203 07006KT 0800 FG BKN005 620102 QNH2978INS
BECMG 2209/2210 VRB06KT 5000 BR BKN010 620102 QNH2975INS
BECMG 2214/2215 08006KT 9999 NSW OVC015 QNH2973INS TX07/2115Z TN00/2202Z



MetMap, La meteo Aeronautica in un colpo d'occhio ! - Copyright ORBIFLY Dicembre 2007 - Disclaimer

ORBIFLY MET'MAP TEAM :

Programmazione e sviluppo : Alexandra Zaïnal
Concezione e sviluppo : Baudouin d'Aumeries
Co-Programmazione e sviluppo : Marc-Olivier Méhu
Supporto tecnico e logistico : Manuel Goepfert
Aiuto per la traduzione : Arnaldo La Scala

Contatto : metmap@orbifly.com




FONTI E CREDITI :

   NOAA